Aviation Digital Data Service (ADDS)

Output produced by METARs form (2114 UTC 15 October 2018)
found at http://aviationweather.gov/metar/data/
 
KHKS 152053Z 35008G16KT 10SM CLR 26/21 A3007 RMK AO2 SLP175 T02610206 53000
KHKS 151731Z 1518/1618 34009KT P6SM SCT040 
     FM160400 36011KT P6SM OVC015 
     FM161100 01009KT 5SM BR OVC007